sensor_id;sensor_type;location;lat;lon;timestamp;pressure;altitude;pressure_sealevel;temperature;humidity
9139;BME280;4604;48.616;9.548;2023-01-08T00:01:53;96401.97;;;7.28;80.75
9139;BME280;4604;48.616;9.548;2023-01-08T00:04:20;96400.44;;;7.25;80.68
9139;BME280;4604;48.616;9.548;2023-01-08T00:06:47;96375.25;;;7.13;80.63
9139;BME280;4604;48.616;9.548;2023-01-08T00:09:13;96398.97;;;7.42;78.69
9139;BME280;4604;48.616;9.548;2023-01-08T00:11:40;96396.75;;;7.38;78.94
9139;BME280;4604;48.616;9.548;2023-01-08T00:14:07;96389.16;;;7.35;78.57
9139;BME280;4604;48.616;9.548;2023-01-08T00:16:35;96389.16;;;7.35;78.17
9139;BME280;4604;48.616;9.548;2023-01-08T00:19:02;96390.28;;;7.42;77.81
9139;BME280;4604;48.616;9.548;2023-01-08T00:21:29;96385.56;;;7.45;77.70
9139;BME280;4604;48.616;9.548;2023-01-08T00:23:56;96383.94;;;7.44;77.03
9139;BME280;4604;48.616;9.548;2023-01-08T00:26:22;96382.41;;;7.42;77.20
9139;BME280;4604;48.616;9.548;2023-01-08T00:28:49;96374.97;;;7.47;76.77
9139;BME280;4604;48.616;9.548;2023-01-08T00:31:16;96366.66;;;7.42;76.20
9139;BME280;4604;48.616;9.548;2023-01-08T00:33:44;96367.78;;;7.49;74.99
9139;BME280;4604;48.616;9.548;2023-01-08T00:36:13;96348.28;;;7.42;75.15
9139;BME280;4604;48.616;9.548;2023-01-08T00:38:40;96362.34;;;7.41;75.89
9139;BME280;4604;48.616;9.548;2023-01-08T00:41:07;96369.84;;;7.55;75.28
9139;BME280;4604;48.616;9.548;2023-01-08T00:43:34;96371.09;;;7.51;75.64
9139;BME280;4604;48.616;9.548;2023-01-08T00:46:01;96365.84;;;7.51;75.85
9139;BME280;4604;48.616;9.548;2023-01-08T00:48:28;96356.31;;;7.50;74.88
9139;BME280;4604;48.616;9.548;2023-01-08T00:50:56;96360.84;;;7.48;75.60
9139;BME280;4604;48.616;9.548;2023-01-08T00:53:23;96349.09;;;7.42;75.85
9139;BME280;4604;48.616;9.548;2023-01-08T00:55:50;96344.25;;;7.38;75.79
9139;BME280;4604;48.616;9.548;2023-01-08T00:58:24;96337.59;;;7.34;75.78
9139;BME280;4604;48.616;9.548;2023-01-08T01:00:51;96338.84;;;7.29;75.80
9139;BME280;4604;48.616;9.548;2023-01-08T01:03:17;96330.53;;;7.24;76.04
9139;BME280;4604;48.616;9.548;2023-01-08T01:05:44;96331.09;;;7.28;75.87
9139;BME280;4604;48.616;9.548;2023-01-08T01:08:12;96333.59;;;7.29;75.93
9139;BME280;4604;48.616;9.548;2023-01-08T01:10:39;96316.75;;;7.32;75.70
9139;BME280;4604;48.616;9.548;2023-01-08T01:13:05;96297.63;;;7.11;75.93
9139;BME280;4604;48.616;9.548;2023-01-08T01:15:32;96323.22;;;7.28;75.82
9139;BME280;4604;48.616;9.548;2023-01-08T01:17:59;96326.25;;;7.23;76.31
9139;BME280;4604;48.616;9.548;2023-01-08T01:20:26;96326.63;;;7.19;76.71
9139;BME280;4604;48.616;9.548;2023-01-08T01:22:52;96312.81;;;7.17;76.63
9139;BME280;4604;48.616;9.548;2023-01-08T01:25:20;96310.88;;;7.09;77.31
9139;BME280;4604;48.616;9.548;2023-01-08T01:27:47;96307.69;;;7.05;77.74
9139;BME280;4604;48.616;9.548;2023-01-08T01:30:14;96309.72;;;7.02;77.30
9139;BME280;4604;48.616;9.548;2023-01-08T01:32:40;96307.66;;;6.96;77.50
9139;BME280;4604;48.616;9.548;2023-01-08T01:35:07;96312.31;;;6.92;77.99
9139;BME280;4604;48.616;9.548;2023-01-08T01:37:34;96321.28;;;6.90;78.25
9139;BME280;4604;48.616;9.548;2023-01-08T01:40:01;96321.66;;;6.85;78.19
9139;BME280;4604;48.616;9.548;2023-01-08T01:42:29;96330.06;;;6.79;79.20
9139;BME280;4604;48.616;9.548;2023-01-08T01:45:13;96319.97;;;6.74;78.74
9139;BME280;4604;48.616;9.548;2023-01-08T01:47:41;96326.81;;;6.65;79.21
9139;BME280;4604;48.616;9.548;2023-01-08T01:50:12;96325.09;;;6.76;79.17
9139;BME280;4604;48.616;9.548;2023-01-08T01:52:41;96329.91;;;6.71;78.92
9139;BME280;4604;48.616;9.548;2023-01-08T01:55:11;96333.75;;;6.67;79.06
9139;BME280;4604;48.616;9.548;2023-01-08T01:57:41;96327.41;;;6.69;79.48
9139;BME280;4604;48.616;9.548;2023-01-08T02:00:11;96331.56;;;6.72;79.38
9139;BME280;4604;48.616;9.548;2023-01-08T02:02:38;96311.34;;;6.62;78.84
9139;BME280;4604;48.616;9.548;2023-01-08T02:05:05;96335.31;;;6.79;78.07
9139;BME280;4604;48.616;9.548;2023-01-08T02:07:36;96329.75;;;6.72;78.51
9139;BME280;4604;48.616;9.548;2023-01-08T02:10:09;96322.97;;;6.70;78.80
9139;BME280;4604;48.616;9.548;2023-01-08T02:12:40;96319.09;;;6.64;79.10
9139;BME280;4604;48.616;9.548;2023-01-08T02:15:12;96305.78;;;6.56;79.57
9139;BME280;4604;48.616;9.548;2023-01-08T02:17:44;96313.59;;;6.67;79.36
9139;BME280;4604;48.616;9.548;2023-01-08T02:20:17;96301.06;;;6.71;78.89
9139;BME280;4604;48.616;9.548;2023-01-08T02:22:50;96285.63;;;6.77;77.46
9139;BME280;4604;48.616;9.548;2023-01-08T02:25:30;96297.81;;;6.88;77.20
9139;BME280;4604;48.616;9.548;2023-01-08T02:28:04;96294.97;;;7.01;76.63
9139;BME280;4604;48.616;9.548;2023-01-08T02:30:31;96291.94;;;7.05;76.54
9139;BME280;4604;48.616;9.548;2023-01-08T02:32:58;96294.69;;;7.04;76.79
9139;BME280;4604;48.616;9.548;2023-01-08T02:35:33;96283.38;;;7.03;76.92
9139;BME280;4604;48.616;9.548;2023-01-08T02:38:03;96274.09;;;6.99;77.25
9139;BME280;4604;48.616;9.548;2023-01-08T02:40:32;96268.03;;;6.99;77.51
9139;BME280;4604;48.616;9.548;2023-01-08T02:43:08;96264.28;;;6.92;77.24
9139;BME280;4604;48.616;9.548;2023-01-08T02:45:43;96246.50;;;6.95;77.33
9139;BME280;4604;48.616;9.548;2023-01-08T02:48:14;96248.47;;;7.13;77.08
9139;BME280;4604;48.616;9.548;2023-01-08T02:50:48;96241.28;;;7.05;77.23
9139;BME280;4604;48.616;9.548;2023-01-08T02:53:19;96231.72;;;7.04;77.40
9139;BME280;4604;48.616;9.548;2023-01-08T02:55:51;96224.97;;;7.01;78.20
9139;BME280;4604;48.616;9.548;2023-01-08T02:58:20;96209.63;;;6.97;78.39
9139;BME280;4604;48.616;9.548;2023-01-08T03:00:49;96209.63;;;6.97;78.60
9139;BME280;4604;48.616;9.548;2023-01-08T03:03:19;96201.63;;;6.98;79.29
9139;BME280;4604;48.616;9.548;2023-01-08T03:05:52;96202.03;;;6.94;79.10
9139;BME280;4604;48.616;9.548;2023-01-08T03:08:20;96199.53;;;6.92;79.18
9139;BME280;4604;48.616;9.548;2023-01-08T03:10:50;96192.22;;;6.86;79.25
9139;BME280;4604;48.616;9.548;2023-01-08T03:13:23;96208.66;;;6.88;79.97
9139;BME280;4604;48.616;9.548;2023-01-08T03:15:54;96195.94;;;6.83;79.83
9139;BME280;4604;48.616;9.548;2023-01-08T03:18:28;96189.72;;;6.84;79.47
9139;BME280;4604;48.616;9.548;2023-01-08T03:21:00;96203.66;;;6.85;79.33
9139;BME280;4604;48.616;9.548;2023-01-08T03:23:27;96200.19;;;6.84;79.29
9139;BME280;4604;48.616;9.548;2023-01-08T03:25:58;96193.97;;;6.76;80.35
9139;BME280;4604;48.616;9.548;2023-01-08T03:28:29;96204.56;;;6.64;81.84
9139;BME280;4604;48.616;9.548;2023-01-08T03:30:59;96192.25;;;6.55;83.10
9139;BME280;4604;48.616;9.548;2023-01-08T03:33:29;96184.19;;;6.37;83.69
9139;BME280;4604;48.616;9.548;2023-01-08T03:35:59;96172.69;;;6.29;84.43
9139;BME280;4604;48.616;9.548;2023-01-08T03:38:32;96185.66;;;6.30;84.74
9139;BME280;4604;48.616;9.548;2023-01-08T03:41:04;96177.75;;;6.20;85.47
9139;BME280;4604;48.616;9.548;2023-01-08T03:43:33;96189.66;;;6.25;85.28
9139;BME280;4604;48.616;9.548;2023-01-08T03:46:02;96167.22;;;6.11;86.17
9139;BME280;4604;48.616;9.548;2023-01-08T03:48:32;96174.72;;;6.15;86.63
9139;BME280;4604;48.616;9.548;2023-01-08T03:51:00;96177.31;;;6.15;86.67
9139;BME280;4604;48.616;9.548;2023-01-08T03:53:27;96169.72;;;6.12;86.73
9139;BME280;4604;48.616;9.548;2023-01-08T03:55:54;96178.41;;;6.13;87.29
9139;BME280;4604;48.616;9.548;2023-01-08T03:58:21;96171.81;;;6.18;87.85
9139;BME280;4604;48.616;9.548;2023-01-08T04:00:49;96162.13;;;6.09;88.27
9139;BME280;4604;48.616;9.548;2023-01-08T04:03:17;96169.03;;;6.10;88.15
9139;BME280;4604;48.616;9.548;2023-01-08T04:05:44;96167.78;;;6.14;88.05
9139;BME280;4604;48.616;9.548;2023-01-08T04:08:10;96164.09;;;6.17;88.33
9139;BME280;4604;48.616;9.548;2023-01-08T04:10:37;96161.50;;;6.17;88.05
9139;BME280;4604;48.616;9.548;2023-01-08T04:13:04;96154.13;;;6.11;88.37
9139;BME280;4604;48.616;9.548;2023-01-08T04:15:31;96145.13;;;6.04;88.20
9139;BME280;4604;48.616;9.548;2023-01-08T04:18:00;96152.66;;;6.18;87.91
9139;BME280;4604;48.616;9.548;2023-01-08T04:20:26;96156.69;;;6.22;88.10
9139;BME280;4604;48.616;9.548;2023-01-08T04:22:53;96171.53;;;6.21;87.80
9139;BME280;4604;48.616;9.548;2023-01-08T04:25:20;96173.03;;;6.14;87.96
9139;BME280;4604;48.616;9.548;2023-01-08T04:27:46;96177.72;;;6.11;87.93
9139;BME280;4604;48.616;9.548;2023-01-08T04:30:13;96175.03;;;6.01;88.78
9139;BME280;4604;48.616;9.548;2023-01-08T04:32:40;96183.41;;;5.95;88.97
9139;BME280;4604;48.616;9.548;2023-01-08T04:35:08;96182.25;;;5.88;89.52
9139;BME280;4604;48.616;9.548;2023-01-08T04:37:35;96177.50;;;5.82;89.79
9139;BME280;4604;48.616;9.548;2023-01-08T04:40:02;96182.38;;;5.86;90.36
9139;BME280;4604;48.616;9.548;2023-01-08T04:42:29;96173.94;;;5.83;90.07
9139;BME280;4604;48.616;9.548;2023-01-08T04:44:55;96173.38;;;5.79;90.15
9139;BME280;4604;48.616;9.548;2023-01-08T04:47:22;96171.72;;;5.78;90.57
9139;BME280;4604;48.616;9.548;2023-01-08T04:49:49;96176.69;;;5.81;90.66
9139;BME280;4604;48.616;9.548;2023-01-08T04:52:17;96169.34;;;5.75;90.96
9139;BME280;4604;48.616;9.548;2023-01-08T04:54:43;96180.69;;;5.85;91.09
9139;BME280;4604;48.616;9.548;2023-01-08T04:57:10;96174.91;;;5.82;91.23
9139;BME280;4604;48.616;9.548;2023-01-08T04:59:36;96178.53;;;5.69;92.15
9139;BME280;4604;48.616;9.548;2023-01-08T05:02:03;96190.53;;;5.72;92.17
9139;BME280;4604;48.616;9.548;2023-01-08T05:04:30;96193.53;;;5.67;92.68
9139;BME280;4604;48.616;9.548;2023-01-08T05:06:56;96212.78;;;5.45;95.31
9139;BME280;4604;48.616;9.548;2023-01-08T05:09:25;96199.88;;;5.32;96.42
9139;BME280;4604;48.616;9.548;2023-01-08T05:11:51;96235.50;;;5.56;96.44
9139;BME280;4604;48.616;9.548;2023-01-08T05:14:18;96249.09;;;5.39;97.38
9139;BME280;4604;48.616;9.548;2023-01-08T05:16:44;96245.09;;;5.23;99.14
9139;BME280;4604;48.616;9.548;2023-01-08T05:19:11;96243.16;;;5.36;97.83
9139;BME280;4604;48.616;9.548;2023-01-08T05:21:38;96254.94;;;5.31;97.89
9139;BME280;4604;48.616;9.548;2023-01-08T05:24:05;96235.19;;;5.38;97.86
9139;BME280;4604;48.616;9.548;2023-01-08T05:26:35;96224.94;;;5.46;97.99
9139;BME280;4604;48.616;9.548;2023-01-08T05:29:01;96229.91;;;5.49;97.17
9139;BME280;4604;48.616;9.548;2023-01-08T05:31:28;96229.53;;;5.54;96.63
9139;BME280;4604;48.616;9.548;2023-01-08T05:33:56;96220.72;;;5.55;96.31
9139;BME280;4604;48.616;9.548;2023-01-08T05:36:23;96216.19;;;5.57;96.69
9139;BME280;4604;48.616;9.548;2023-01-08T05:38:49;96204.38;;;5.63;96.33
9139;BME280;4604;48.616;9.548;2023-01-08T05:41:16;96204.44;;;5.72;95.77
9139;BME280;4604;48.616;9.548;2023-01-08T05:43:44;96204.59;;;5.71;96.12
9139;BME280;4604;48.616;9.548;2023-01-08T05:46:11;96213.28;;;5.71;96.00
9139;BME280;4604;48.616;9.548;2023-01-08T05:48:37;96213.00;;;5.74;96.12
9139;BME280;4604;48.616;9.548;2023-01-08T05:51:04;96216.91;;;5.80;95.71
9139;BME280;4604;48.616;9.548;2023-01-08T05:53:31;96204.53;;;5.82;95.58
9139;BME280;4604;48.616;9.548;2023-01-08T05:55:59;96195.13;;;5.79;95.22
9139;BME280;4604;48.616;9.548;2023-01-08T05:58:26;96193.94;;;5.84;95.11
9139;BME280;4604;48.616;9.548;2023-01-08T06:01:00;96189.53;;;5.84;95.07
9139;BME280;4604;48.616;9.548;2023-01-08T06:03:27;96185.81;;;5.87;94.87
9139;BME280;4604;48.616;9.548;2023-01-08T06:05:57;96190.31;;;5.96;93.70
9139;BME280;4604;48.616;9.548;2023-01-08T06:08:24;96188.03;;;5.91;94.14
9139;BME280;4604;48.616;9.548;2023-01-08T06:10:50;96211.25;;;5.96;94.17
9139;BME280;4604;48.616;9.548;2023-01-08T06:13:17;96208.25;;;6.00;94.46
9139;BME280;4604;48.616;9.548;2023-01-08T06:15:44;96198.63;;;6.01;94.98
9139;BME280;4604;48.616;9.548;2023-01-08T06:18:12;96184.69;;;6.00;95.26
9139;BME280;4604;48.616;9.548;2023-01-08T06:20:38;96176.69;;;6.02;95.89
9139;BME280;4604;48.616;9.548;2023-01-08T06:23:06;96176.22;;;6.18;94.91
9139;BME280;4604;48.616;9.548;2023-01-08T06:25:33;96178.16;;;6.16;93.99
9139;BME280;4604;48.616;9.548;2023-01-08T06:28:00;96214.50;;;6.30;93.79
9139;BME280;4604;48.616;9.548;2023-01-08T06:30:27;96198.50;;;6.33;93.80
9139;BME280;4604;48.616;9.548;2023-01-08T06:32:54;96207.72;;;6.58;92.85
9139;BME280;4604;48.616;9.548;2023-01-08T06:35:23;96195.16;;;6.62;93.50
9139;BME280;4604;48.616;9.548;2023-01-08T06:37:50;96181.66;;;6.67;93.41
9139;BME280;4604;48.616;9.548;2023-01-08T06:40:16;96189.41;;;6.78;93.22
9139;BME280;4604;48.616;9.548;2023-01-08T06:42:43;96172.88;;;6.87;93.60
9139;BME280;4604;48.616;9.548;2023-01-08T06:45:11;96178.13;;;6.97;92.52
9139;BME280;4604;48.616;9.548;2023-01-08T06:47:37;96181.59;;;7.07;91.77
9139;BME280;4604;48.616;9.548;2023-01-08T06:50:04;96172.22;;;7.24;91.29
9139;BME280;4604;48.616;9.548;2023-01-08T06:52:33;96179.69;;;7.28;91.70
9139;BME280;4604;48.616;9.548;2023-01-08T06:54:59;96188.84;;;7.63;89.18
9139;BME280;4604;48.616;9.548;2023-01-08T06:57:26;96189.47;;;7.94;86.70
9139;BME280;4604;48.616;9.548;2023-01-08T06:59:53;96199.94;;;8.14;85.63
9139;BME280;4604;48.616;9.548;2023-01-08T07:02:19;96200.22;;;8.21;85.08
9139;BME280;4604;48.616;9.548;2023-01-08T07:04:46;96218.16;;;8.45;85.16
9139;BME280;4604;48.616;9.548;2023-01-08T07:07:13;96216.53;;;8.44;86.60
9139;BME280;4604;48.616;9.548;2023-01-08T07:09:42;96195.28;;;8.55;88.87
9139;BME280;4604;48.616;9.548;2023-01-08T07:12:11;96196.78;;;8.57;89.89
9139;BME280;4604;48.616;9.548;2023-01-08T07:14:38;96185.44;;;8.57;90.25
9139;BME280;4604;48.616;9.548;2023-01-08T07:17:04;96189.88;;;8.56;92.43
9139;BME280;4604;48.616;9.548;2023-01-08T07:19:31;96184.19;;;8.61;93.79
9139;BME280;4604;48.616;9.548;2023-01-08T07:21:58;96190.19;;;8.53;96.58
9139;BME280;4604;48.616;9.548;2023-01-08T07:24:24;96181.78;;;8.40;98.81
9139;BME280;4604;48.616;9.548;2023-01-08T07:26:52;96179.00;;;8.42;99.94
9139;BME280;4604;48.616;9.548;2023-01-08T07:29:19;96155.78;;;8.27;97.05
9139;BME280;4604;48.616;9.548;2023-01-08T07:31:46;96160.63;;;8.32;97.93
9139;BME280;4604;48.616;9.548;2023-01-08T07:34:12;96190.06;;;8.45;98.03
9139;BME280;4604;48.616;9.548;2023-01-08T07:36:39;96190.06;;;8.45;98.39
9139;BME280;4604;48.616;9.548;2023-01-08T07:39:06;96185.66;;;8.73;95.93
9139;BME280;4604;48.616;9.548;2023-01-08T07:41:32;96186.13;;;8.59;96.65
9139;BME280;4604;48.616;9.548;2023-01-08T07:44:00;96189.25;;;8.72;97.81
9139;BME280;4604;48.616;9.548;2023-01-08T07:46:27;96180.50;;;8.54;96.99
9139;BME280;4604;48.616;9.548;2023-01-08T07:48:54;96192.47;;;8.66;95.90
9139;BME280;4604;48.616;9.548;2023-01-08T07:51:21;96197.63;;;8.58;96.86
9139;BME280;4604;48.616;9.548;2023-01-08T07:53:48;96205.59;;;8.76;97.92
9139;BME280;4604;48.616;9.548;2023-01-08T07:56:15;96209.38;;;8.64;98.27
9139;BME280;4604;48.616;9.548;2023-01-08T07:58:42;96189.47;;;8.61;97.07
9139;BME280;4604;48.616;9.548;2023-01-08T08:01:10;96196.41;;;8.52;95.95
9139;BME280;4604;48.616;9.548;2023-01-08T08:03:37;96197.31;;;8.71;96.79
9139;BME280;4604;48.616;9.548;2023-01-08T08:06:04;96202.22;;;8.56;98.20
9139;BME280;4604;48.616;9.548;2023-01-08T08:08:31;96198.69;;;8.65;95.60
9139;BME280;4604;48.616;9.548;2023-01-08T08:10:58;96181.06;;;8.48;98.48
9139;BME280;4604;48.616;9.548;2023-01-08T08:13:25;96181.06;;;8.48;100.00
9139;BME280;4604;48.616;9.548;2023-01-08T08:15:51;96169.97;;;8.54;100.00
9139;BME280;4604;48.616;9.548;2023-01-08T08:18:19;96185.16;;;8.60;100.00
9139;BME280;4604;48.616;9.548;2023-01-08T08:20:46;96187.41;;;8.55;99.12
9139;BME280;4604;48.616;9.548;2023-01-08T08:23:16;96186.78;;;8.71;96.30
9139;BME280;4604;48.616;9.548;2023-01-08T08:25:42;96177.59;;;8.75;95.55
9139;BME280;4604;48.616;9.548;2023-01-08T08:28:10;96185.41;;;8.67;94.89
9139;BME280;4604;48.616;9.548;2023-01-08T08:30:37;96161.00;;;8.74;95.21
9139;BME280;4604;48.616;9.548;2023-01-08T08:33:05;96172.56;;;8.64;95.25
9139;BME280;4604;48.616;9.548;2023-01-08T08:35:33;96160.47;;;8.71;98.23
9139;BME280;4604;48.616;9.548;2023-01-08T08:38:00;96166.00;;;8.68;98.42
9139;BME280;4604;48.616;9.548;2023-01-08T08:40:27;96162.34;;;8.51;100.00
9139;BME280;4604;48.616;9.548;2023-01-08T08:42:55;96161.47;;;8.60;99.69
9139;BME280;4604;48.616;9.548;2023-01-08T08:45:22;96155.66;;;8.66;99.43
9139;BME280;4604;48.616;9.548;2023-01-08T08:47:49;96153.25;;;8.73;97.70
9139;BME280;4604;48.616;9.548;2023-01-08T08:50:16;96166.06;;;8.58;98.11
9139;BME280;4604;48.616;9.548;2023-01-08T08:52:44;96163.69;;;8.65;97.55
9139;BME280;4604;48.616;9.548;2023-01-08T08:55:13;96164.28;;;8.59;97.83
9139;BME280;4604;48.616;9.548;2023-01-08T08:57:42;96160.66;;;8.60;97.76
9139;BME280;4604;48.616;9.548;2023-01-08T09:00:09;96149.03;;;8.62;97.72
9139;BME280;4604;48.616;9.548;2023-01-08T09:02:37;96150.56;;;8.55;97.81
9139;BME280;4604;48.616;9.548;2023-01-08T09:05:04;96156.84;;;8.72;97.95
9139;BME280;4604;48.616;9.548;2023-01-08T09:07:31;96149.41;;;8.67;98.45
9139;BME280;4604;48.616;9.548;2023-01-08T09:09:59;96143.91;;;8.61;98.92
9139;BME280;4604;48.616;9.548;2023-01-08T09:12:26;96134.97;;;8.53;99.58
9139;BME280;4604;48.616;9.548;2023-01-08T09:14:53;96142.72;;;8.73;99.01
9139;BME280;4604;48.616;9.548;2023-01-08T09:17:21;96135.28;;;8.68;97.60
9139;BME280;4604;48.616;9.548;2023-01-08T09:19:49;96129.69;;;8.81;97.14
9139;BME280;4604;48.616;9.548;2023-01-08T09:22:16;96151.53;;;8.82;96.08
9139;BME280;4604;48.616;9.548;2023-01-08T09:24:42;96144.09;;;8.77;95.75
9139;BME280;4604;48.616;9.548;2023-01-08T09:27:10;96152.66;;;8.79;96.20
9139;BME280;4604;48.616;9.548;2023-01-08T09:29:37;96127.00;;;8.63;94.73
9139;BME280;4604;48.616;9.548;2023-01-08T09:32:04;96118.41;;;8.71;96.01
9139;BME280;4604;48.616;9.548;2023-01-08T09:34:32;96135.50;;;8.75;97.36
9139;BME280;4604;48.616;9.548;2023-01-08T09:37:00;96129.44;;;8.74;97.75
9139;BME280;4604;48.616;9.548;2023-01-08T09:39:27;96140.88;;;8.83;94.02
9139;BME280;4604;48.616;9.548;2023-01-08T09:41:54;96144.84;;;8.87;94.18
9139;BME280;4604;48.616;9.548;2023-01-08T09:44:27;96141.16;;;8.80;96.06
9139;BME280;4604;48.616;9.548;2023-01-08T09:46:55;96137.50;;;8.91;94.23
9139;BME280;4604;48.616;9.548;2023-01-08T09:49:25;96124.59;;;8.97;93.91
9139;BME280;4604;48.616;9.548;2023-01-08T09:51:54;96125.94;;;9.02;91.91
9139;BME280;4604;48.616;9.548;2023-01-08T09:54:23;96135.63;;;9.01;93.51
9139;BME280;4604;48.616;9.548;2023-01-08T09:56:51;96101.97;;;9.05;92.17
9139;BME280;4604;48.616;9.548;2023-01-08T09:59:18;96127.75;;;9.01;92.52
9139;BME280;4604;48.616;9.548;2023-01-08T10:01:46;96114.59;;;9.01;92.91
9139;BME280;4604;48.616;9.548;2023-01-08T10:04:15;96106.44;;;8.94;93.66
9139;BME280;4604;48.616;9.548;2023-01-08T10:06:49;96102.44;;;8.72;94.65
9139;BME280;4604;48.616;9.548;2023-01-08T10:09:18;96126.25;;;8.98;92.49
9139;BME280;4604;48.616;9.548;2023-01-08T10:11:47;96119.03;;;9.00;92.86
9139;BME280;4604;48.616;9.548;2023-01-08T10:14:20;96133.75;;;8.93;93.32
9139;BME280;4604;48.616;9.548;2023-01-08T10:16:54;96126.25;;;8.98;93.78
9139;BME280;4604;48.616;9.548;2023-01-08T10:19:22;96115.56;;;9.00;92.54
9139;BME280;4604;48.616;9.548;2023-01-08T10:21:49;96121.56;;;8.92;93.54
9139;BME280;4604;48.616;9.548;2023-01-08T10:24:15;96116.03;;;8.95;94.17
9139;BME280;4604;48.616;9.548;2023-01-08T10:26:43;96133.13;;;8.99;93.68
9139;BME280;4604;48.616;9.548;2023-01-08T10:29:13;96114.81;;;9.08;93.15
9139;BME280;4604;48.616;9.548;2023-01-08T10:31:48;96116.84;;;9.14;92.27
9139;BME280;4604;48.616;9.548;2023-01-08T10:34:30;96122.91;;;9.14;90.78
9139;BME280;4604;48.616;9.548;2023-01-08T10:36:57;96123.78;;;9.15;90.61
9139;BME280;4604;48.616;9.548;2023-01-08T10:39:26;96119.94;;;9.27;90.63
9139;BME280;4604;48.616;9.548;2023-01-08T10:41:57;96115.13;;;9.23;90.17
9139;BME280;4604;48.616;9.548;2023-01-08T10:44:29;96112.25;;;9.34;90.17
9139;BME280;4604;48.616;9.548;2023-01-08T10:46:58;96106.84;;;9.17;89.62
9139;BME280;4604;48.616;9.548;2023-01-08T10:49:30;96106.38;;;9.40;87.40
9139;BME280;4604;48.616;9.548;2023-01-08T10:51:58;96092.69;;;9.36;86.83
9139;BME280;4604;48.616;9.548;2023-01-08T10:54:33;96088.09;;;9.38;86.03
9139;BME280;4604;48.616;9.548;2023-01-08T10:57:00;96099.75;;;9.54;86.58
9139;BME280;4604;48.616;9.548;2023-01-08T10:59:26;96102.88;;;9.57;85.85
9139;BME280;4604;48.616;9.548;2023-01-08T11:01:54;96094.03;;;9.58;86.01
9139;BME280;4604;48.616;9.548;2023-01-08T11:04:26;96084.59;;;9.56;82.52
9139;BME280;4604;48.616;9.548;2023-01-08T11:06:55;96092.41;;;9.65;83.25
9139;BME280;4604;48.616;9.548;2023-01-08T11:09:28;96088.44;;;9.61;83.15
9139;BME280;4604;48.616;9.548;2023-01-08T11:11:55;96086.47;;;9.63;84.02
9139;BME280;4604;48.616;9.548;2023-01-08T11:14:25;96074.34;;;9.71;81.72
9139;BME280;4604;48.616;9.548;2023-01-08T11:16:53;96074.84;;;9.74;79.09
9139;BME280;4604;48.616;9.548;2023-01-08T11:19:23;96072.91;;;9.76;80.93
9139;BME280;4604;48.616;9.548;2023-01-08T11:21:57;96080.38;;;9.89;80.24
9139;BME280;4604;48.616;9.548;2023-01-08T11:24:26;96072.78;;;9.86;81.33
9139;BME280;4604;48.616;9.548;2023-01-08T11:26:59;96072.69;;;9.96;79.25
9139;BME280;4604;48.616;9.548;2023-01-08T11:29:30;96068.81;;;9.82;80.12
9139;BME280;4604;48.616;9.548;2023-01-08T11:32:11;96063.06;;;9.86;81.17
9139;BME280;4604;48.616;9.548;2023-01-08T11:34:50;96047.81;;;9.98;77.31
9139;BME280;4604;48.616;9.548;2023-01-08T11:37:23;96046.69;;;10.01;78.09
9139;BME280;4604;48.616;9.548;2023-01-08T11:39:51;96045.59;;;10.20;77.18
9139;BME280;4604;48.616;9.548;2023-01-08T11:42:44;96037.97;;;10.08;77.37
9139;BME280;4604;48.616;9.548;2023-01-08T11:45:24;96024.47;;;10.12;77.50
9139;BME280;4604;48.616;9.548;2023-01-08T11:51:09;96009.63;;;10.02;76.49
9139;BME280;4604;48.616;9.548;2023-01-08T11:53:46;96018.63;;;9.92;76.96
9139;BME280;4604;48.616;9.548;2023-01-08T11:56:24;96006.78;;;9.96;77.70
9139;BME280;4604;48.616;9.548;2023-01-08T11:59:07;95996.44;;;10.02;76.85
9139;BME280;4604;48.616;9.548;2023-01-08T12:01:48;96011.63;;;10.17;76.93
9139;BME280;4604;48.616;9.548;2023-01-08T12:04:33;96007.28;;;10.34;75.03
9139;BME280;4604;48.616;9.548;2023-01-08T12:07:08;96010.09;;;10.32;74.81
9139;BME280;4604;48.616;9.548;2023-01-08T12:09:42;95988.03;;;10.07;76.09
9139;BME280;4604;48.616;9.548;2023-01-08T12:12:21;95995.69;;;10.26;76.46
9139;BME280;4604;48.616;9.548;2023-01-08T12:15:00;95989.81;;;10.33;76.49
9139;BME280;4604;48.616;9.548;2023-01-08T12:17:47;95978.03;;;10.19;75.73
9139;BME280;4604;48.616;9.548;2023-01-08T12:20:28;95990.72;;;10.23;74.51
9139;BME280;4604;48.616;9.548;2023-01-08T12:23:01;95991.56;;;10.24;76.40
9139;BME280;4604;48.616;9.548;2023-01-08T12:25:40;95989.31;;;10.37;76.52
9139;BME280;4604;48.616;9.548;2023-01-08T12:28:31;95988.84;;;10.42;76.77
9139;BME280;4604;48.616;9.548;2023-01-08T12:31:16;95985.22;;;10.35;77.37
9139;BME280;4604;48.616;9.548;2023-01-08T12:33:53;95981.91;;;10.33;75.79
9139;BME280;4604;48.616;9.548;2023-01-08T12:36:24;95986.53;;;10.39;77.70
9139;BME280;4604;48.616;9.548;2023-01-08T12:38:58;95987.03;;;10.34;76.89
9139;BME280;4604;48.616;9.548;2023-01-08T12:41:31;95981.06;;;10.32;77.60
9139;BME280;4604;48.616;9.548;2023-01-08T12:44:00;95975.72;;;10.24;78.40
9139;BME280;4604;48.616;9.548;2023-01-08T12:46:30;95956.25;;;10.17;77.79
9139;BME280;4604;48.616;9.548;2023-01-08T12:48:59;95969.50;;;10.25;78.20
9139;BME280;4604;48.616;9.548;2023-01-08T12:51:31;95974.91;;;10.23;78.18
9139;BME280;4604;48.616;9.548;2023-01-08T12:54:06;95966.84;;;10.25;77.21
9139;BME280;4604;48.616;9.548;2023-01-08T12:56:42;95971.03;;;10.36;76.34
9139;BME280;4604;48.616;9.548;2023-01-08T12:59:23;95966.94;;;10.07;76.18
9139;BME280;4604;48.616;9.548;2023-01-08T13:01:58;95966.50;;;10.20;76.62
9139;BME280;4604;48.616;9.548;2023-01-08T13:04:27;95966.84;;;10.25;77.33
9139;BME280;4604;48.616;9.548;2023-01-08T13:07:00;95954.16;;;10.20;76.90
9139;BME280;4604;48.616;9.548;2023-01-08T13:09:28;95956.78;;;10.20;76.10
9139;BME280;4604;48.616;9.548;2023-01-08T13:11:58;95954.50;;;10.25;75.98
9139;BME280;4604;48.616;9.548;2023-01-08T13:14:26;95949.53;;;10.22;75.79
9139;BME280;4604;48.616;9.548;2023-01-08T13:17:01;95957.44;;;10.22;76.79
9139;BME280;4604;48.616;9.548;2023-01-08T13:19:32;95954.63;;;10.16;77.62
9139;BME280;4604;48.616;9.548;2023-01-08T13:22:00;95937.78;;;10.08;79.08
9139;BME280;4604;48.616;9.548;2023-01-08T13:24:32;95942.41;;;10.06;79.35
9139;BME280;4604;48.616;9.548;2023-01-08T13:27:26;95936.47;;;10.04;79.40
9139;BME280;4604;48.616;9.548;2023-01-08T13:29:53;95939.47;;;10.18;77.94
9139;BME280;4604;48.616;9.548;2023-01-08T13:32:23;95933.66;;;10.06;77.21
9139;BME280;4604;48.616;9.548;2023-01-08T13:35:01;95920.31;;;9.99;77.45
9139;BME280;4604;48.616;9.548;2023-01-08T13:37:28;95912.44;;;10.07;77.24
9139;BME280;4604;48.616;9.548;2023-01-08T13:39:54;95921.84;;;10.10;77.91
9139;BME280;4604;48.616;9.548;2023-01-08T13:42:24;95921.97;;;10.08;77.77
9139;BME280;4604;48.616;9.548;2023-01-08T13:44:57;95912.53;;;9.90;77.97
9139;BME280;4604;48.616;9.548;2023-01-08T13:47:29;95907.44;;;9.88;77.55